Time;durP1;ratioP1;P1;durP2;ratioP2;P2;SDS_P1;SDS_P2;PMS_P1;PMS_P2;Temp;Humidity;BMP_temperature;BMP_pressure;BME280_temperature;BME280_humidity;BME280_pressure;Samples;Min_cycle;Max_cycle;Signal;HPM_P1;HPM_P2
2021/12/18 00:00:48;;;;;;;9.38;3.40;;;6.80;99.90;;;;;;5056226;28;20037;-82
2021/12/18 00:03:14;;;;;;;12.30;4.40;;;6.80;99.90;;;;;;5053604;28;20561;-81
2021/12/18 00:05:40;;;;;;;18.67;4.55;;;6.80;99.90;;;;;;5059643;28;20037;-83
2021/12/18 00:08:06;;;;;;;17.27;4.70;;;6.80;99.90;;;;;;5064670;28;20044;-83
2021/12/18 00:10:33;;;;;;;16.20;4.70;;;6.80;99.90;;;;;;5065398;28;20037;-84
2021/12/18 00:13:00;;;;;;;24.45;4.93;;;6.90;99.90;;;;;;5063940;28;20055;-83
2021/12/18 00:15:27;;;;;;;12.75;4.07;;;6.90;99.90;;;;;;5059072;28;20170;-83
2021/12/18 00:17:53;;;;;;;19.83;4.95;;;6.90;99.90;;;;;;5073542;28;20047;-82
2021/12/18 00:20:19;;;;;;;19.63;5.13;;;7.00;99.90;;;;;;5089788;28;20355;-82
2021/12/18 00:22:45;;;;;;;18.88;6.47;;;6.90;99.90;;;;;;5081021;28;20044;-83
2021/12/18 00:25:11;;;;;;;15.30;2.90;;;6.90;99.90;;;;;;5072822;28;20464;-84
2021/12/18 00:27:37;;;;;;;9.32;3.92;;;6.90;99.90;;;;;;5055977;28;20580;-83
2021/12/18 00:30:07;;;;;;;9.38;3.70;;;7.00;99.90;;;;;;5082117;28;20063;-83
2021/12/18 00:32:33;;;;;;;26.58;4.60;;;7.00;99.90;;;;;;5085393;28;20879;-82
2021/12/18 00:34:59;;;;;;;13.27;3.83;;;6.90;99.90;;;;;;5073083;28;20044;-82
2021/12/18 00:37:24;;;;;;;11.20;3.00;;;6.90;99.90;;;;;;5074434;28;20375;-83
2021/12/18 00:39:58;;;;;;;7.85;2.95;;;6.90;99.90;;;;;;5076940;28;20070;-83
2021/12/18 00:42:46;;;;;;;8.23;2.53;;;7.00;99.90;;;;;;5078823;28;20063;-84
2021/12/18 00:45:15;;;;;;;10.35;2.72;;;6.90;99.90;;;;;;5065887;28;20465;-83
2021/12/18 00:47:41;;;;;;;6.35;2.25;;;6.90;99.90;;;;;;5084284;28;20040;-83
2021/12/18 00:50:10;;;;;;;3.40;2.22;;;6.80;99.90;;;;;;5080820;28;20041;-82
2021/12/18 00:52:36;;;;;;;5.30;2.63;;;6.90;99.90;;;;;;5081767;28;20445;-83
2021/12/18 00:55:03;;;;;;;6.07;3.00;;;6.90;99.90;;;;;;5076590;28;20711;-79
2021/12/18 00:57:29;;;;;;;7.43;2.45;;;6.90;99.90;;;;;;5084749;28;20032;-84
2021/12/18 00:59:59;;;;;;;6.63;2.83;;;6.90;99.90;;;;;;5073096;28;20174;-81
2021/12/18 01:02:26;;;;;;;9.73;2.10;;;6.90;99.90;;;;;;5084264;28;20054;-82
2021/12/18 01:04:52;;;;;;;7.28;2.40;;;6.90;99.90;;;;;;5069891;28;20040;-81
2021/12/18 01:07:17;;;;;;;9.27;2.22;;;6.80;99.90;;;;;;5077993;28;20699;-82
2021/12/18 01:12:09;;;;;;;5.18;2.10;;;6.80;99.90;;;;;;5080097;28;20044;-83
2021/12/18 01:22:48;;;;;;;4.40;1.45;;;6.70;99.90;;;;;;5091315;28;20044;-83
2021/12/18 01:25:20;;;;;;;15.50;2.53;;;6.70;99.90;;;;;;5073514;28;20566;-78
2021/12/18 01:27:46;;;;;;;6.97;2.65;;;6.70;99.90;;;;;;5076561;28;20047;-83
2021/12/18 01:30:13;;;;;;;5.03;2.00;;;6.60;99.90;;;;;;5083003;28;20041;-84
2021/12/18 01:32:40;;;;;;;9.07;2.05;;;6.60;99.90;;;;;;5084617;28;20036;-84
2021/12/18 01:35:06;;;;;;;19.45;2.20;;;6.60;99.90;;;;;;5091608;28;20043;-84
2021/12/18 01:37:32;;;;;;;5.85;1.48;;;6.60;99.90;;;;;;5084781;28;20040;-83
2021/12/18 01:39:57;;;;;;;6.35;1.75;;;6.50;99.90;;;;;;5090724;28;20573;-83
2021/12/18 01:53:06;;;;;;;11.77;1.95;;;6.50;99.90;;;;;;5068647;28;20048;-82
2021/12/18 01:55:35;;;;;;;42.00;2.35;;;6.60;99.90;;;;;;5073750;28;20654;-83
2021/12/18 01:58:02;;;;;;;45.75;3.03;;;6.50;99.90;;;;;;5083578;28;20505;-83
2021/12/18 02:00:31;;;;;;;14.77;1.95;;;6.50;99.90;;;;;;5081888;28;20402;-83
2021/12/18 02:02:57;;;;;;;26.10;2.33;;;6.50;99.90;;;;;;5080145;28;20111;-84
2021/12/18 02:05:23;;;;;;;19.00;1.73;;;6.40;99.90;;;;;;5084188;28;20090;-84
2021/12/18 02:07:49;;;;;;;36.33;3.35;;;6.30;99.90;;;;;;5089846;28;20069;-81
2021/12/18 02:10:21;;;;;;;15.68;2.33;;;6.40;99.90;;;;;;5082926;28;20127;-81
2021/12/18 02:13:08;;;;;;;34.03;2.85;;;6.50;99.90;;;;;;5084422;28;20044;-82
2021/12/18 02:21:14;;;;;;;18.67;3.58;;;6.50;99.90;;;;;;5085833;28;20088;-83
2021/12/18 02:23:40;;;;;;;14.90;3.90;;;6.40;99.90;;;;;;5091123;28;20040;-83
2021/12/18 02:26:06;;;;;;;37.22;2.88;;;6.40;99.90;;;;;;5087933;28;20036;-83
2021/12/18 02:28:32;;;;;;;27.02;2.72;;;6.40;99.90;;;;;;5071994;28;20051;-84
2021/12/18 02:30:59;;;;;;;24.60;3.10;;;6.40;99.90;;;;;;5098062;28;20397;-83
2021/12/18 02:33:26;;;;;;;5.28;1.75;;;6.50;99.90;;;;;;5089982;28;20415;-84
2021/12/18 02:35:55;;;;;;;4.80;1.90;;;6.40;99.90;;;;;;5090104;28;20096;-83
2021/12/18 02:38:28;;;;;;;7.95;2.38;;;6.40;99.90;;;;;;5086790;28;20452;-83
2021/12/18 02:43:30;;;;;;;4.97;1.60;;;6.40;99.90;;;;;;5080294;28;20458;-82
2021/12/18 02:46:00;;;;;;;4.63;2.65;;;6.40;99.90;;;;;;5092037;28;20306;-85
2021/12/18 02:48:29;;;;;;;3.75;1.80;;;6.30;99.90;;;;;;5086992;28;20043;-82
2021/12/18 02:50:58;;;;;;;4.13;1.70;;;6.40;99.90;;;;;;5081634;28;20032;-83
2021/12/18 02:53:26;;;;;;;10.80;2.20;;;6.40;99.90;;;;;;5077307;28;20090;-82
2021/12/18 02:55:59;;;;;;;5.72;1.50;;;6.40;99.90;;;;;;5087248;28;20036;-83
2021/12/18 02:58:25;;;;;;;8.65;1.40;;;6.40;99.90;;;;;;5082294;28;20470;-83
2021/12/18 03:00:53;;;;;;;16.40;2.55;;;6.40;99.90;;;;;;5078609;28;20395;-81
2021/12/18 03:03:20;;;;;;;4.20;1.63;;;6.50;99.90;;;;;;5072511;28;20071;-83
2021/12/18 03:06:00;;;;;;;2.67;1.88;;;6.40;99.90;;;;;;5054481;28;20080;-84
2021/12/18 03:08:40;;;;;;;3.92;2.38;;;6.40;99.90;;;;;;5070859;28;20493;-84
2021/12/18 03:26:47;;;;;;;11.02;2.58;;;6.40;99.90;;;;;;5090137;28;20044;-82
2021/12/18 03:29:13;;;;;;;19.98;3.22;;;6.50;99.90;;;;;;5083412;28;20079;-81
2021/12/18 03:31:38;;;;;;;5.13;2.28;;;6.50;99.90;;;;;;5086808;28;20547;-81
2021/12/18 03:34:04;;;;;;;9.35;3.25;;;6.50;99.90;;;;;;5073198;28;20049;-82
2021/12/18 03:36:30;;;;;;;6.57;3.28;;;6.60;99.90;;;;;;5071783;28;20509;-84
2021/12/18 03:38:55;;;;;;;8.98;3.05;;;6.50;99.90;;;;;;5088890;28;20044;-83
2021/12/18 03:41:21;;;;;;;7.43;2.85;;;6.60;99.90;;;;;;5082077;28;20050;-84
2021/12/18 03:43:47;;;;;;;7.82;2.47;;;6.50;99.90;;;;;;5076302;28;20510;-84
2021/12/18 03:46:12;;;;;;;15.25;3.10;;;6.50;99.90;;;;;;5081131;28;20075;-75
2021/12/18 03:48:38;;;;;;;16.80;3.13;;;6.60;99.90;;;;;;5084583;28;20044;-85
2021/12/18 03:51:04;;;;;;;8.95;3.33;;;6.50;99.90;;;;;;5073421;28;20045;-84
2021/12/18 03:53:29;;;;;;;10.77;2.95;;;6.60;99.90;;;;;;5087603;28;20410;-83
2021/12/18 03:55:55;;;;;;;10.40;2.83;;;6.60;99.90;;;;;;5078814;28;20064;-82
2021/12/18 03:58:21;;;;;;;9.15;2.65;;;6.60;99.90;;;;;;5075694;28;20506;-85
2021/12/18 04:00:46;;;;;;;9.00;2.80;;;6.60;99.90;;;;;;5078130;28;20059;-82
2021/12/18 04:03:12;;;;;;;8.07;3.58;;;6.60;99.90;;;;;;5087306;28;20062;-82
2021/12/18 04:05:38;;;;;;;10.77;2.33;;;6.60;99.90;;;;;;5080664;28;20351;-83
2021/12/18 04:08:10;;;;;;;25.08;3.85;;;6.60;99.90;;;;;;5085109;28;20068;-83
2021/12/18 04:10:40;;;;;;;12.00;3.13;;;6.70;99.90;;;;;;5085347;28;20093;-83
2021/12/18 04:13:06;;;;;;;;;;;6.70;99.90;;;;;;5074694;28;20112;-82
2021/12/18 04:15:32;;;;;;;16.35;3.83;;;6.60;99.90;;;;;;5079740;28;20105;-83
2021/12/18 04:17:58;;;;;;;9.68;3.78;;;6.60;99.90;;;;;;5085260;28;20051;-84
2021/12/18 04:20:24;;;;;;;15.63;3.67;;;6.60;99.90;;;;;;5079460;28;20446;-83
2021/12/18 04:22:51;;;;;;;10.75;3.92;;;6.70;99.90;;;;;;5083907;28;20044;-82
2021/12/18 04:25:16;;;;;;;10.32;3.28;;;6.70;99.90;;;;;;5088545;28;20040;-83
2021/12/18 04:27:42;;;;;;;11.05;3.72;;;6.70;99.90;;;;;;5090094;28;20051;-83
2021/12/18 04:30:08;;;;;;;8.05;3.15;;;6.70;99.90;;;;;;5067984;28;20052;-83
2021/12/18 04:32:33;;;;;;;14.45;4.38;;;6.70;99.90;;;;;;5089001;28;20047;-83
2021/12/18 04:34:59;;;;;;;12.15;4.30;;;6.70;99.90;;;;;;5079887;28;20036;-84
2021/12/18 04:37:25;;;;;;;11.38;4.45;;;6.80;99.90;;;;;;5082492;28;20067;-84
2021/12/18 04:39:51;;;;;;;10.13;5.00;;;6.70;99.90;;;;;;5086594;28;20024;-84
2021/12/18 04:42:17;;;;;;;11.75;6.07;;;6.80;99.90;;;;;;5076280;28;20044;-84
2021/12/18 04:44:43;;;;;;;10.10;5.63;;;6.80;99.90;;;;;;5078249;28;20089;-79
2021/12/18 04:47:09;;;;;;;15.02;6.38;;;6.80;99.90;;;;;;5089521;28;20048;-83
2021/12/18 04:49:35;;;;;;;12.23;5.85;;;6.80;99.90;;;;;;5080998;28;20101;-84
2021/12/18 04:52:02;;;;;;;8.15;4.00;;;6.90;99.90;;;;;;5072947;28;20040;-83
2021/12/18 04:54:28;;;;;;;10.85;3.22;;;6.90;99.90;;;;;;5058663;28;20040;-84
2021/12/18 04:56:53;;;;;;;8.30;3.50;;;6.90;99.90;;;;;;5070583;28;20048;-77
2021/12/18 04:59:19;;;;;;;6.38;3.30;;;6.90;99.90;;;;;;5077746;28;20115;-83
2021/12/18 05:01:45;;;;;;;9.55;3.75;;;6.90;99.90;;;;;;5068354;28;20036;-84
2021/12/18 05:04:13;;;;;;;11.63;3.72;;;7.00;99.90;;;;;;5075616;28;20048;-84
2021/12/18 05:06:43;;;;;;;8.52;2.70;;;6.90;99.90;;;;;;5083311;28;20065;-84
2021/12/18 05:09:09;;;;;;;10.30;3.00;;;7.00;99.90;;;;;;5072594;28;20038;-84
2021/12/18 05:11:35;;;;;;;6.75;3.38;;;7.00;99.90;;;;;;5065986;28;20121;-85
2021/12/18 05:14:01;;;;;;;8.68;2.85;;;6.90;99.90;;;;;;5091715;28;20109;-83
2021/12/18 05:16:27;;;;;;;11.82;3.08;;;7.00;99.90;;;;;;5068439;28;20048;-82
2021/12/18 05:18:53;;;;;;;10.30;2.97;;;6.90;99.90;;;;;;5087500;28;20044;-82
2021/12/18 05:21:18;;;;;;;8.10;3.10;;;7.00;99.90;;;;;;5095123;28;20389;-84
2021/12/18 05:23:44;;;;;;;8.15;2.85;;;7.00;99.90;;;;;;5074447;28;20549;-83
2021/12/18 05:26:10;;;;;;;12.25;3.72;;;7.00;99.90;;;;;;5082337;28;20048;-82
2021/12/18 05:28:35;;;;;;;16.45;4.35;;;6.90;99.90;;;;;;5088773;28;20036;-84
2021/12/18 05:31:01;;;;;;;7.88;3.53;;;7.00;99.90;;;;;;5088731;28;20087;-82
2021/12/18 05:33:26;;;;;;;15.65;3.63;;;7.00;99.90;;;;;;5076202;28;20040;-84
2021/12/18 05:35:52;;;;;;;12.45;3.40;;;7.10;99.90;;;;;;5095196;28;20036;-83
2021/12/18 05:38:18;;;;;;;14.48;3.78;;;7.00;99.90;;;;;;5091911;28;20039;-85
2021/12/18 05:40:43;;;;;;;12.65;3.78;;;7.00;99.90;;;;;;5090684;28;20123;-84
2021/12/18 05:43:09;;;;;;;10.38;3.75;;;7.10;99.90;;;;;;5058690;28;20056;-87
2021/12/18 05:45:37;;;;;;;7.57;3.17;;;7.10;99.90;;;;;;5085658;28;20052;-85
2021/12/18 05:48:03;;;;;;;7.05;3.50;;;7.00;99.90;;;;;;5089617;28;20059;-80
2021/12/18 05:50:30;;;;;;;11.43;3.83;;;7.00;99.90;;;;;;5083171;28;20041;-83
2021/12/18 05:52:58;;;;;;;8.15;2.92;;;7.00;99.90;;;;;;5085166;28;20047;-83
2021/12/18 05:55:25;;;;;;;4.57;2.70;;;7.10;99.90;;;;;;5091535;28;20079;-85
2021/12/18 05:57:51;;;;;;;7.97;2.50;;;7.10;99.90;;;;;;5082288;28;20041;-86
2021/12/18 06:00:18;;;;;;;7.60;2.67;;;7.00;99.90;;;;;;5067613;28;20036;-85
2021/12/18 06:02:44;;;;;;;7.18;2.53;;;7.00;99.90;;;;;;5092030;28;20411;-85
2021/12/18 06:05:10;;;;;;;10.52;2.40;;;7.10;99.90;;;;;;5093310;28;20123;-84
2021/12/18 06:10:18;;;;;;;7.05;3.15;;;7.10;99.90;;;;;;5082545;28;20079;-84
2021/12/18 06:12:44;;;;;;;5.68;3.13;;;7.10;99.90;;;;;;5084672;28;20051;-84
2021/12/18 06:15:10;;;;;;;10.15;4.28;;;7.10;99.90;;;;;;5089826;28;20389;-84
2021/12/18 06:17:35;;;;;;;10.68;3.75;;;7.00;99.90;;;;;;5090272;28;20052;-83
2021/12/18 06:20:02;;;;;;;13.50;3.97;;;7.20;99.90;;;;;;5082644;28;20055;-83
2021/12/18 06:22:28;;;;;;;11.80;4.30;;;7.00;99.90;;;;;;5075238;28;20032;-83
2021/12/18 06:24:53;;;;;;;11.13;4.72;;;7.10;99.90;;;;;;5062093;28;20044;-76
2021/12/18 06:27:19;;;;;;;9.40;3.47;;;7.20;99.90;;;;;;5090606;28;20367;-84
2021/12/18 06:29:46;;;;;;;11.25;4.70;;;7.10;99.90;;;;;;5090376;28;20097;-83
2021/12/18 06:32:11;;;;;;;12.18;4.10;;;7.20;99.90;;;;;;5072027;28;20060;-83
2021/12/18 06:34:37;;;;;;;15.88;5.82;;;7.30;99.90;;;;;;5086435;28;20048;-83
2021/12/18 06:37:03;;;;;;;12.70;4.75;;;7.30;99.90;;;;;;5060500;28;21524;-83
2021/12/18 06:39:28;;;;;;;9.90;4.65;;;7.20;99.90;;;;;;5071286;28;20044;-83
2021/12/18 06:41:54;;;;;;;12.38;5.57;;;7.20;99.90;;;;;;5085504;28;20062;-81
2021/12/18 06:44:19;;;;;;;13.77;5.30;;;7.30;99.90;;;;;;5085381;28;20039;-86
2021/12/18 06:46:45;;;;;;;13.40;6.18;;;7.30;99.90;;;;;;5101680;28;20084;-83
2021/12/18 06:49:11;;;;;;;12.27;4.68;;;7.30;99.90;;;;;;5092049;28;20036;-89
2021/12/18 06:51:37;;;;;;;17.38;6.78;;;7.30;99.90;;;;;;5108509;28;20024;-82
2021/12/18 06:54:03;;;;;;;14.05;6.53;;;7.30;99.90;;;;;;5110234;28;20016;-78
2021/12/18 06:56:28;;;;;;;12.95;4.85;;;7.40;99.90;;;;;;5113426;28;20064;-85
2021/12/18 06:58:54;;;;;;;18.13;5.38;;;7.30;99.90;;;;;;5094207;28;20050;-80
2021/12/18 07:01:20;;;;;;;13.15;4.97;;;7.50;99.90;;;;;;5087633;28;20043;-90
2021/12/18 07:03:45;;;;;;;18.02;7.30;;;7.30;99.90;;;;;;5098445;28;20092;-89
2021/12/18 07:06:11;;;;;;;13.68;5.60;;;7.40;99.90;;;;;;5098270;28;20121;-90
2021/12/18 07:08:37;;;;;;;12.70;5.85;;;7.40;99.90;;;;;;5078319;28;20054;-89
2021/12/18 07:11:03;;;;;;;13.82;6.28;;;7.50;99.90;;;;;;5063333;28;20485;-88
2021/12/18 07:13:29;;;;;;;10.32;4.72;;;7.40;99.90;;;;;;5080043;28;20039;-90
2021/12/18 07:15:55;;;;;;;12.80;6.20;;;7.40;99.90;;;;;;5095910;28;20083;-86
2021/12/18 07:18:20;;;;;;;10.38;5.10;;;7.40;99.90;;;;;;5097382;28;20498;-92
2021/12/18 07:20:46;;;;;;;12.07;5.18;;;7.50;99.90;;;;;;5091708;28;20115;-90
2021/12/18 07:23:12;;;;;;;12.90;6.40;;;7.50;99.90;;;;;;5096824;28;20052;-87
2021/12/18 07:25:37;;;;;;;15.18;5.28;;;7.50;99.90;;;;;;5077628;28;20047;-89
2021/12/18 07:28:03;;;;;;;13.13;5.82;;;7.60;99.90;;;;;;5094307;28;20042;-88
2021/12/18 07:30:29;;;;;;;12.00;5.45;;;7.50;99.90;;;;;;5093539;28;20071;-86
2021/12/18 07:32:55;;;;;;;14.70;6.57;;;7.50;99.90;;;;;;5088605;28;20072;-88
2021/12/18 07:35:20;;;;;;;13.50;5.32;;;7.50;99.90;;;;;;5075199;28;20054;-89
2021/12/18 07:37:46;;;;;;;16.35;5.57;;;7.50;99.90;;;;;;5078940;28;20114;-90
2021/12/18 07:40:13;;;;;;;20.50;7.00;;;7.60;99.90;;;;;;5084541;28;20119;-88
2021/12/18 07:42:39;;;;;;;15.93;6.85;;;7.60;99.90;;;;;;5082598;28;20081;-90
2021/12/18 07:45:05;;;;;;;12.13;5.28;;;7.60;99.90;;;;;;5091263;28;20032;-84
2021/12/18 07:47:31;;;;;;;18.70;6.43;;;7.50;99.90;;;;;;5100102;28;20037;-83
2021/12/18 07:49:57;;;;;;;12.82;6.90;;;7.60;99.90;;;;;;5089823;28;20012;-90
2021/12/18 07:52:24;;;;;;;11.45;6.07;;;7.60;99.90;;;;;;5083862;28;20040;-89
2021/12/18 07:54:50;;;;;;;12.63;6.45;;;7.70;99.90;;;;;;5080516;28;20115;-89
2021/12/18 07:57:15;;;;;;;17.65;6.35;;;7.60;99.90;;;;;;5097267;28;20036;-74
2021/12/18 07:59:41;;;;;;;21.45;5.75;;;7.60;99.90;;;;;;5111434;28;20059;-77
2021/12/18 08:02:07;;;;;;;12.77;5.00;;;7.70;99.90;;;;;;5082996;28;20057;-85
2021/12/18 08:04:34;;;;;;;12.98;4.75;;;7.70;99.90;;;;;;5089613;28;20600;-89
2021/12/18 08:07:00;;;;;;;11.63;5.07;;;7.70;99.90;;;;;;5074069;28;20037;-87
2021/12/18 08:09:25;;;;;;;11.30;5.05;;;7.80;99.90;;;;;;5085031;28;20524;-88
2021/12/18 08:11:51;;;;;;;14.98;5.30;;;7.80;99.90;;;;;;5098452;28;20036;-88
2021/12/18 08:14:17;;;;;;;27.38;5.82;;;7.80;99.90;;;;;;5090289;28;20044;-88
2021/12/18 08:16:42;;;;;;;18.38;5.40;;;7.70;99.90;;;;;;5076172;28;20049;-76
2021/12/18 08:19:08;;;;;;;9.45;5.20;;;7.80;99.90;;;;;;5082715;28;20062;-87
2021/12/18 08:21:33;;;;;;;11.25;4.38;;;7.90;99.90;;;;;;5096831;28;20035;-86
2021/12/18 08:23:59;;;;;;;10.50;5.75;;;7.80;99.90;;;;;;5086573;28;20048;-88
2021/12/18 08:26:25;;;;;;;13.40;5.38;;;7.80;99.90;;;;;;5083528;28;20525;-86
2021/12/18 08:28:50;;;;;;;12.93;5.57;;;7.80;99.90;;;;;;5066485;28;20131;-87
2021/12/18 08:31:16;;;;;;;15.82;5.97;;;7.90;99.90;;;;;;5073762;28;20040;-87
2021/12/18 08:33:41;;;;;;;10.88;5.80;;;7.80;99.90;;;;;;5093176;28;20047;-89
2021/12/18 08:36:07;;;;;;;13.38;4.80;;;7.90;99.90;;;;;;5071165;28;20032;-85
2021/12/18 08:38:33;;;;;;;8.48;5.22;;;7.90;99.90;;;;;;5089687;28;20055;-88
2021/12/18 08:40:59;;;;;;;14.68;5.65;;;8.00;99.90;;;;;;5082512;28;20021;-90
2021/12/18 08:43:24;;;;;;;12.93;5.22;;;8.00;99.90;;;;;;5093010;28;20101;-89
2021/12/18 08:45:50;;;;;;;14.75;6.25;;;8.00;99.90;;;;;;5099409;28;20490;-90
2021/12/18 08:48:16;;;;;;;11.00;6.13;;;8.00;99.90;;;;;;5078097;28;20044;-89
2021/12/18 08:50:42;;;;;;;17.88;5.65;;;8.00;99.90;;;;;;5078241;28;20044;-89
2021/12/18 08:53:08;;;;;;;13.40;5.93;;;8.00;99.90;;;;;;5088784;28;20044;-90
2021/12/18 08:55:33;;;;;;;11.52;5.65;;;8.00;99.90;;;;;;5091973;28;20040;-90
2021/12/18 08:57:59;;;;;;;13.43;5.45;;;8.10;99.90;;;;;;5073731;28;20410;-90
2021/12/18 09:00:25;;;;;;;11.93;5.82;;;8.10;99.90;;;;;;5071335;28;20051;-90
2021/12/18 09:02:58;;;;;;;11.95;5.28;;;8.10;99.90;;;;;;5086698;28;20063;-88
2021/12/18 09:05:26;;;;;;;14.63;4.88;;;8.20;99.90;;;;;;5058149;28;20045;-90
2021/12/18 09:07:51;;;;;;;12.80;5.40;;;8.20;99.90;;;;;;5116500;28;20024;-86
2021/12/18 09:10:17;;;;;;;8.65;4.80;;;8.20;99.90;;;;;;5103673;28;20097;-78
2021/12/18 09:12:43;;;;;;;9.38;5.85;;;8.20;99.90;;;;;;5067788;28;20103;-79
2021/12/18 09:15:10;;;;;;;11.18;4.70;;;8.20;99.90;;;;;;5082410;28;20048;-89
2021/12/18 09:17:35;;;;;;;10.15;4.93;;;8.20;99.90;;;;;;5090131;28;20098;-88
2021/12/18 09:20:03;;;;;;;12.02;4.78;;;8.20;99.90;;;;;;5094131;28;20044;-79
2021/12/18 09:22:28;;;;;;;7.22;4.53;;;8.30;99.90;;;;;;5056541;28;20054;-88
2021/12/18 09:24:54;;;;;;;10.65;4.63;;;8.30;99.90;;;;;;5085888;28;20040;-84
2021/12/18 09:27:22;;;;;;;12.15;5.35;;;8.30;99.90;;;;;;5053324;28;20045;-89
2021/12/18 09:29:48;;;;;;;9.75;5.50;;;8.40;99.90;;;;;;5040347;28;20083;-80
2021/12/18 09:32:13;;;;;;;10.85;4.85;;;8.40;99.90;;;;;;5058106;28;20570;-75
2021/12/18 09:34:39;;;;;;;14.50;5.00;;;8.30;99.90;;;;;;5080185;28;20067;-89
2021/12/18 09:37:05;;;;;;;13.80;5.32;;;8.30;99.90;;;;;;5092315;28;20056;-86
2021/12/18 09:39:31;;;;;;;10.90;4.78;;;8.30;99.90;;;;;;5091481;28;20051;-88
2021/12/18 09:41:57;;;;;;;12.80;5.50;;;8.40;99.90;;;;;;5085663;28;20038;-89
2021/12/18 09:44:24;;;;;;;8.05;4.18;;;8.30;99.90;;;;;;5096071;28;20044;-90
2021/12/18 09:46:50;;;;;;;9.32;3.58;;;8.30;99.90;;;;;;5092353;28;20041;-89
2021/12/18 09:49:16;;;;;;;8.65;4.32;;;8.30;99.90;;;;;;5077512;28;20051;-87
2021/12/18 09:51:42;;;;;;;9.73;4.65;;;8.30;99.90;;;;;;5090178;28;20044;-89
2021/12/18 09:54:08;;;;;;;6.97;4.10;;;8.20;99.90;;;;;;5102334;28;20040;-87
2021/12/18 09:56:33;;;;;;;12.40;4.55;;;8.20;99.90;;;;;;5099624;28;20501;-88
2021/12/18 09:58:59;;;;;;;7.95;4.68;;;8.20;99.90;;;;;;5107088;28;20020;-88
2021/12/18 10:01:25;;;;;;;11.90;4.60;;;8.20;99.90;;;;;;5088267;28;20068;-89
2021/12/18 10:03:54;;;;;;;8.68;4.47;;;8.20;99.90;;;;;;5100756;28;20047;-92
2021/12/18 10:06:33;;;;;;;6.80;3.33;;;8.20;99.90;;;;;;5073370;28;20416;-80
2021/12/18 10:08:58;;;;;;;4.00;2.63;;;8.20;99.90;;;;;;5058164;28;20083;-78
2021/12/18 10:11:24;;;;;;;4.68;2.65;;;8.20;99.90;;;;;;5072554;28;20071;-78
2021/12/18 10:14:02;;;;;;;9.70;2.63;;;8.10;99.90;;;;;;5091396;28;20046;-76
2021/12/18 10:16:28;;;;;;;2.67;1.13;;;8.20;99.90;;;;;;5082372;28;20135;-79
2021/12/18 10:18:56;;;;;;;2.05;0.75;;;8.10;99.90;;;;;;5072907;28;20071;-80
2021/12/18 10:21:24;;;;;;;3.00;0.85;;;8.20;99.90;;;;;;5081438;28;20032;-78
2021/12/18 10:23:51;;;;;;;2.60;1.23;;;8.20;99.90;;;;;;5071401;28;20097;-76
2021/12/18 10:26:35;;;;;;;2.72;1.02;;;8.20;99.90;;;;;;5083883;28;20044;-79
2021/12/18 10:29:01;;;;;;;3.95;1.67;;;8.20;99.90;;;;;;5070259;28;20052;-79
2021/12/18 10:31:45;;;;;;;2.63;1.50;;;8.20;99.90;;;;;;5062336;28;20101;-78
2021/12/18 10:34:14;;;;;;;3.70;2.35;;;8.20;99.90;;;;;;5062634;28;20048;-79
2021/12/18 10:36:39;;;;;;;4.38;2.40;;;8.20;99.90;;;;;;5058920;28;20536;-81
2021/12/18 10:39:05;;;;;;;7.45;2.67;;;8.20;99.90;;;;;;5088302;28;20044;-83
2021/12/18 10:41:35;;;;;;;7.28;4.43;;;8.10;99.90;;;;;;5080137;28;20048;-82
2021/12/18 10:44:10;;;;;;;9.43;4.50;;;8.20;99.90;;;;;;5055798;28;20080;-83
2021/12/18 10:46:39;;;;;;;5.45;3.35;;;8.20;99.90;;;;;;5082308;28;20429;-83
2021/12/18 10:49:10;;;;;;;6.20;4.07;;;8.20;99.90;;;;;;5088579;28;20119;-82
2021/12/18 10:51:38;;;;;;;8.32;4.55;;;8.30;99.90;;;;;;5065338;28;20044;-82
2021/12/18 10:54:06;;;;;;;6.10;4.43;;;8.30;99.90;;;;;;5085478;28;20071;-82
2021/12/18 10:56:38;;;;;;;9.15;3.92;;;8.20;99.90;;;;;;5078101;28;20669;-82
2021/12/18 10:59:18;;;;;;;7.90;4.43;;;8.20;99.90;;;;;;5077146;28;20490;-82
2021/12/18 11:01:52;;;;;;;9.70;4.10;;;8.30;99.90;;;;;;5073306;28;20040;-82
2021/12/18 11:04:24;;;;;;;9.85;5.38;;;8.30;99.90;;;;;;5076875;28;20060;-81
2021/12/18 11:06:51;;;;;;;16.92;6.95;;;8.30;99.90;;;;;;5074418;28;20082;-84
2021/12/18 11:09:17;;;;;;;11.23;4.20;;;8.40;99.90;;;;;;5085338;28;20494;-84
2021/12/18 11:14:39;;;;;;;11.70;4.13;;;8.40;99.90;;;;;;5072478;28;20048;-81
2021/12/18 11:17:07;;;;;;;11.57;4.72;;;8.40;99.90;;;;;;5067888;28;20078;-82
2021/12/18 11:19:34;;;;;;;16.40;5.90;;;8.60;99.90;;;;;;5071710;28;20051;-80
2021/12/18 11:22:05;;;;;;;10.70;5.38;;;8.60;99.90;;;;;;5083132;28;20630;-81
2021/12/18 11:25:01;;;;;;;10.30;5.30;;;8.50;99.90;;;;;;5083032;28;20347;-81
2021/12/18 11:27:28;;;;;;;10.55;5.57;;;8.60;99.90;;;;;;5077845;28;20502;-79
2021/12/18 11:29:57;;;;;;;12.50;6.20;;;8.60;99.90;;;;;;5092764;28;20044;-77
2021/12/18 11:32:24;;;;;;;10.07;6.47;;;8.70;99.90;;;;;;5065812;28;20110;-81
2021/12/18 11:34:54;;;;;;;18.95;9.07;;;8.70;99.90;;;;;;5094986;28;20036;-83
2021/12/18 11:37:21;;;;;;;24.00;7.70;;;8.80;99.90;;;;;;5057860;28;20127;-81
2021/12/18 11:39:49;;;;;;;12.52;5.45;;;8.70;99.90;;;;;;5070689;28;20083;-83
2021/12/18 11:42:17;;;;;;;8.88;5.43;;;8.70;99.90;;;;;;5069617;28;20052;-80
2021/12/18 11:44:52;;;;;;;8.23;4.45;;;8.70;99.90;;;;;;5052219;28;20119;-76
2021/12/18 11:47:29;;;;;;;18.33;5.80;;;8.70;99.90;;;;;;5089192;28;20055;-80
2021/12/18 11:50:03;;;;;;;11.02;5.18;;;8.80;99.90;;;;;;5090626;28;20048;-82
2021/12/18 11:52:49;;;;;;;15.48;5.55;;;8.80;99.90;;;;;;5071486;28;20053;-83
2021/12/18 11:55:15;;;;;;;10.38;4.43;;;8.80;99.90;;;;;;5051509;28;20047;-80
2021/12/18 11:57:53;;;;;;;17.83;6.90;;;8.90;99.90;;;;;;5077120;28;20040;-82
2021/12/18 12:00:19;;;;;;;15.77;7.07;;;8.90;99.90;;;;;;5063678;28;20058;-82
2021/12/18 12:02:51;;;;;;;10.75;5.82;;;8.80;99.90;;;;;;5069813;28;20036;-85
2021/12/18 12:05:20;;;;;;;8.55;4.40;;;8.80;99.90;;;;;;5069271;28;20486;-83
2021/12/18 12:07:46;;;;;;;17.23;6.30;;;8.70;99.90;;;;;;5050208;28;20479;-80
2021/12/18 12:10:22;;;;;;;17.77;5.68;;;8.80;99.90;;;;;;5072769;28;20546;-84
2021/12/18 12:12:53;;;;;;;15.10;5.28;;;8.80;99.90;;;;;;5052033;28;20052;-83
2021/12/18 12:15:23;;;;;;;8.73;3.42;;;8.80;99.90;;;;;;5069467;28;20076;-80
2021/12/18 12:17:58;;;;;;;6.70;2.60;;;8.80;99.90;;;;;;5051932;28;20048;-82
2021/12/18 12:20:53;;;;;;;10.90;2.75;;;8.70;99.90;;;;;;5051398;28;20045;-82
2021/12/18 12:23:19;;;;;;;16.95;4.00;;;8.80;99.90;;;;;;5046127;28;20109;-82
2021/12/18 12:25:50;;;;;;;13.77;3.42;;;8.70;99.90;;;;;;5089729;28;20044;-84
2021/12/18 12:28:26;;;;;;;8.82;2.75;;;8.80;99.90;;;;;;5053963;28;20394;-82
2021/12/18 12:31:09;;;;;;;9.88;2.70;;;8.80;99.90;;;;;;5060135;28;20070;-83
2021/12/18 12:33:37;;;;;;;5.93;2.28;;;8.80;99.90;;;;;;5074530;28;20040;-83
2021/12/18 12:36:14;;;;;;;7.95;2.50;;;8.80;99.90;;;;;;5069313;28;20054;-81
2021/12/18 12:38:52;;;;;;;9.30;2.50;;;8.80;99.90;;;;;;5081264;28;20436;-82
2021/12/18 12:41:41;;;;;;;6.57;2.40;;;8.80;99.90;;;;;;5089264;28;20126;-82
2021/12/18 12:44:18;;;;;;;5.03;2.17;;;8.80;99.90;;;;;;5071555;28;20106;-82
2021/12/18 12:46:45;;;;;;;9.43;2.33;;;8.80;99.90;;;;;;5069703;28;20048;-82
2021/12/18 12:49:16;;;;;;;9.85;2.83;;;8.80;99.90;;;;;;5069871;28;20063;-82
2021/12/18 12:52:04;;;;;;;10.38;3.47;;;8.80;99.90;;;;;;5068711;28;20430;-83
2021/12/18 12:54:49;;;;;;;10.13;4.15;;;8.90;99.90;;;;;;5069323;28;20040;-82
2021/12/18 12:57:24;;;;;;;6.75;3.15;;;8.90;99.90;;;;;;5074758;28;20048;-80
2021/12/18 12:59:58;;;;;;;7.47;3.00;;;8.80;99.90;;;;;;5054274;28;20068;-81
2021/12/18 13:02:33;;;;;;;5.72;3.58;;;8.80;99.90;;;;;;5073637;28;20044;-84
2021/12/18 13:05:12;;;;;;;10.82;3.33;;;8.80;99.90;;;;;;5088374;28;20122;-85
2021/12/18 13:07:53;;;;;;;10.50;2.22;;;8.80;99.90;;;;;;5069151;28;20044;-85
2021/12/18 13:10:31;;;;;;;4.95;2.05;;;8.80;99.90;;;;;;5088414;28;20170;-84
2021/12/18 13:12:59;;;;;;;13.23;5.10;;;8.80;99.90;;;;;;5087103;28;20406;-83
2021/12/18 13:15:25;;;;;;;26.75;13.30;;;8.80;99.90;;;;;;5074141;28;20048;-85
2021/12/18 13:18:08;;;;;;;7.57;3.72;;;8.80;99.90;;;;;;5076420;28;20058;-83
2021/12/18 13:20:46;;;;;;;9.02;4.07;;;8.70;99.90;;;;;;5072143;28;20096;-82
2021/12/18 13:23:18;;;;;;;5.68;2.75;;;8.70;99.90;;;;;;5088709;28;20048;-82
2021/12/18 13:25:55;;;;;;;9.63;2.63;;;8.70;99.90;;;;;;5066007;28;20037;-81
2021/12/18 13:28:22;;;;;;;12.88;5.07;;;8.70;99.90;;;;;;5071344;28;20036;-81
2021/12/18 13:30:51;;;;;;;8.50;3.45;;;8.80;99.90;;;;;;5061511;28;20128;-82
2021/12/18 13:33:23;;;;;;;11.57;3.17;;;8.70;99.90;;;;;;5093895;28;20044;-78
2021/12/18 13:35:59;;;;;;;7.63;3.42;;;8.70;99.90;;;;;;5092956;28;20038;-79
2021/12/18 13:38:28;;;;;;;9.18;3.75;;;8.70;99.90;;;;;;5077813;28;20087;-80
2021/12/18 13:40:54;;;;;;;7.72;3.60;;;8.70;99.90;;;;;;5064284;28;20060;-79
2021/12/18 13:43:25;;;;;;;6.28;2.65;;;8.70;99.90;;;;;;5050120;28;20036;-84
2021/12/18 13:46:03;;;;;;;5.45;3.70;;;8.70;99.90;;;;;;5075623;28;20104;-82